Time;durP1;ratioP1;P1;durP2;ratioP2;P2;SDS_P1;SDS_P2;PMS_P1;PMS_P2;Temp;Humidity;BMP_temperature;BMP_pressure;BME280_temperature;BME280_humidity;BME280_pressure;Samples;Min_cycle;Max_cycle;Signal;HPM_P1;HPM_P2
2021/07/20 00:00:51;;;;;;;;;;;;;;;14.15;67.35;66855.56;5133706;27;19934;-72
2021/07/20 00:03:17;;;;;;;;;;;;;;;14.11;69.09;66851.28;5134272;27;19923;-72
2021/07/20 00:05:44;;;;;;;;;;;;;;;14.07;68.07;66847.50;5133542;27;19931;-73
2021/07/20 00:08:12;;;;;;;;;;;;;;;14.04;69.07;66843.28;5134750;27;19930;-72
2021/07/20 00:10:40;;;;;;;;;;;;;;;14.00;68.85;66839.50;5138511;27;19923;-72
2021/07/20 00:13:07;;;;;;;;;;;;;;;13.98;69.41;66836.56;5138031;27;19946;-72
2021/07/20 00:15:34;;;;;;;;;;;;;;;13.96;68.78;66834.78;5136905;27;19923;-72
2021/07/20 00:18:06;;;;;;;;;;;;;;;13.93;68.23;66832.00;5136566;27;19935;-72
2021/07/20 00:20:33;;;;;;;;;;;;;;;13.88;71.90;66826.44;5133753;27;19924;-71
2021/07/20 00:22:59;;;;;;;;;;;;;;;13.80;76.50;66817.06;5133978;27;19930;-72
2021/07/20 00:25:26;;;;;;;;;;;;;;;13.72;79.17;66807.97;5133640;27;19931;-72
2021/07/20 00:27:53;;;;;;;;;;;;;;;13.63;82.70;66797.63;5132669;27;19923;-72
2021/07/20 00:30:19;;;;;;;;;;;;;;;13.52;83.87;66785.47;5133555;27;19923;-73
2021/07/20 00:32:46;;;;;;;;;;;;;;;13.42;82.89;66774.34;5133336;27;20396;-73
2021/07/20 00:35:14;;;;;;;;;;;;;;;13.32;84.68;66763.34;5133853;27;19924;-72
2021/07/20 00:37:41;;;;;;;;;;;;;;;13.23;83.60;66753.28;5133577;27;19930;-72
2021/07/20 00:40:09;;;;;;;;;;;;;;;13.15;83.83;66744.09;5133545;28;20289;-72
2021/07/20 00:42:36;;;;;;;;;;;;;;;13.05;84.05;66733.63;5133185;28;20377;-73
2021/07/20 00:45:03;;;;;;;;;;;;;;;12.97;84.13;66724.13;5133578;28;19931;-72
2021/07/20 00:47:30;;;;;;;;;;;;;;;12.89;84.50;66714.47;5133410;28;20369;-73
2021/07/20 00:49:56;;;;;;;;;;;;;;;12.81;84.22;66705.56;5133422;28;19923;-72
2021/07/20 00:52:24;;;;;;;;;;;;;;;12.73;83.90;66697.44;5133352;28;19924;-72
2021/07/20 00:54:51;;;;;;;;;;;;;;;12.67;84.10;66690.03;5133477;28;19929;-72
2021/07/20 00:57:18;;;;;;;;;;;;;;;12.60;83.51;66682.97;5133494;28;19945;-73
2021/07/20 00:59:44;;;;;;;;;;;;;;;12.55;82.15;66676.69;5133457;28;19930;-72
2021/07/20 01:02:13;;;;;;;;;;;;;;;12.49;82.27;66670.16;5133550;28;20289;-72
2021/07/20 01:04:40;;;;;;;;;;;;;;;12.43;81.82;66663.41;5133201;28;19930;-72
2021/07/20 01:07:07;;;;;;;;;;;;;;;12.37;81.33;66657.00;5133254;28;19924;-72
2021/07/20 01:09:35;;;;;;;;;;;;;;;12.32;80.80;66650.91;5133238;28;20293;-72
2021/07/20 01:12:02;;;;;;;;;;;;;;;12.26;82.11;66644.53;5133418;28;19946;-71
2021/07/20 01:14:29;;;;;;;;;;;;;;;12.21;81.81;66638.31;5133447;28;19923;-71
2021/07/20 01:16:56;;;;;;;;;;;;;;;12.16;81.35;66633.59;5132802;28;19946;-72
2021/07/20 01:19:24;;;;;;;;;;;;;;;12.13;83.82;66629.28;5133275;28;19930;-71
2021/07/20 01:21:52;;;;;;;;;;;;;;;12.09;83.25;66625.78;5132838;28;19931;-71
2021/07/20 01:24:20;;;;;;;;;;;;;;;12.07;83.38;66622.56;5133386;28;19938;-72
2021/07/20 01:26:47;;;;;;;;;;;;;;;12.05;83.48;66620.50;5133097;28;19931;-72
2021/07/20 01:29:15;;;;;;;;;;;;;;;12.03;83.22;66618.63;5133232;28;19923;-73
2021/07/20 01:31:43;;;;;;;;;;;;;;;12.00;83.12;66615.94;5132767;28;20408;-72
2021/07/20 01:34:12;;;;;;;;;;;;;;;11.99;83.50;66613.94;5132917;28;19923;-73
2021/07/20 01:36:39;;;;;;;;;;;;;;;11.98;83.07;66612.84;5132751;28;19930;-73
2021/07/20 01:39:07;;;;;;;;;;;;;;;11.96;84.32;66611.03;5135407;27;19964;-72
2021/07/20 01:41:35;;;;;;;;;;;;;;;11.95;79.39;66609.91;5136556;27;19924;-73
2021/07/20 01:44:03;;;;;;;;;;;;;;;11.94;77.86;66608.47;5136653;27;19923;-72
2021/07/20 01:46:31;;;;;;;;;;;;;;;11.93;78.54;66607.53;5136868;27;19923;-72
2021/07/20 01:48:59;;;;;;;;;;;;;;;11.92;79.91;66605.84;5136619;27;19924;-72
2021/07/20 01:51:27;;;;;;;;;;;;;;;11.91;77.27;66604.44;5136701;27;19930;-72
2021/07/20 01:53:53;;;;;;;;;;;;;;;11.89;78.96;66603.03;5136029;27;19923;-72
2021/07/20 01:56:21;;;;;;;;;;;;;;;11.87;81.86;66600.22;5136717;27;19923;-73
2021/07/20 01:58:49;;;;;;;;;;;;;;;11.85;82.00;66598.38;5136097;27;19923;-72
2021/07/20 02:01:18;;;;;;;;;;;;;;;11.85;80.16;66597.88;5136641;27;19934;-72
2021/07/20 02:09:13;;;;;;;;;;;;;;;11.76;81.21;66588.38;5136342;27;19930;-72
2021/07/20 02:11:40;;;;;;;;;;;;;;;11.73;80.94;66584.13;5135898;27;20380;-72
2021/07/20 02:14:11;;;;;;;;;;;;;;;11.69;81.37;66578.91;5136363;27;19973;-72
2021/07/20 02:16:40;;;;;;;;;;;;;;;11.64;83.25;66573.91;5135813;27;19972;-73
2021/07/20 02:19:08;;;;;;;;;;;;;;;11.61;83.58;66570.44;5135926;27;19923;-72
2021/07/20 02:21:39;;;;;;;;;;;;;;;11.57;83.97;66566.41;5135867;27;20403;-72
2021/07/20 02:24:06;;;;;;;;;;;;;;;11.54;84.75;66562.97;5135947;27;20381;-73
2021/07/20 02:26:33;;;;;;;;;;;;;;;11.51;85.85;66559.19;5135796;27;19930;-72
2021/07/20 02:29:01;;;;;;;;;;;;;;;11.48;86.50;66556.28;5135916;27;19924;-73
2021/07/20 02:31:30;;;;;;;;;;;;;;;11.46;86.22;66554.34;5135701;27;20541;-73
2021/07/20 02:33:57;;;;;;;;;;;;;;;11.45;86.67;66553.25;5135798;27;20262;-73
2021/07/20 02:36:24;;;;;;;;;;;;;;;11.44;85.90;66552.25;5135961;27;19923;-73
2021/07/20 02:38:50;;;;;;;;;;;;;;;11.43;86.13;66551.75;5135386;27;19930;-73
2021/07/20 02:41:17;;;;;;;;;;;;;;;11.43;85.15;66551.47;5135879;27;19930;-73
2021/07/20 02:43:44;;;;;;;;;;;;;;;11.44;83.47;66551.88;5135217;27;20296;-73
2021/07/20 02:46:16;;;;;;;;;;;;;;;11.44;82.33;66552.53;5135779;27;19923;-73
2021/07/20 02:48:44;;;;;;;;;;;;;;;11.46;82.88;66553.94;5135124;27;19923;-73
2021/07/20 02:51:11;;;;;;;;;;;;;;;11.47;82.55;66554.91;5134335;27;20408;-73
2021/07/20 02:53:39;;;;;;;;;;;;;;;11.46;83.83;66553.94;5134986;27;20018;-73
2021/07/20 02:56:07;;;;;;;;;;;;;;;11.46;83.31;66554.09;5135475;27;19927;-73
2021/07/20 02:58:34;;;;;;;;;;;;;;;11.45;84.56;66553.69;5135477;27;19923;-73
2021/07/20 03:01:01;;;;;;;;;;;;;;;11.45;83.00;66553.06;5135152;27;19934;-73
2021/07/20 03:03:28;;;;;;;;;;;;;;;11.44;83.24;66551.94;5135413;27;19946;-73
2021/07/20 03:05:56;;;;;;;;;;;;;;;11.44;79.31;66552.19;5135119;27;19923;-73
2021/07/20 03:08:25;;;;;;;;;;;;;;;11.44;80.60;66552.38;5135042;27;19923;-73
2021/07/20 03:10:52;;;;;;;;;;;;;;;11.44;80.80;66552.38;5134676;27;19931;-73
2021/07/20 03:13:19;;;;;;;;;;;;;;;11.44;81.90;66551.97;5134947;27;20362;-72
2021/07/20 03:15:46;;;;;;;;;;;;;;;11.44;80.27;66552.13;5134563;27;19927;-73
2021/07/20 03:18:13;;;;;;;;;;;;;;;11.44;81.39;66552.31;5134770;27;19923;-73
2021/07/20 03:20:41;;;;;;;;;;;;;;;11.44;78.13;66551.88;5134576;27;19923;-73
2021/07/20 03:23:11;;;;;;;;;;;;;;;11.45;75.37;66553.56;5135035;27;19923;-73
2021/07/20 03:25:37;;;;;;;;;;;;;;;11.46;75.96;66555.00;5134869;27;19923;-73
2021/07/20 03:28:05;;;;;;;;;;;;;;;11.47;75.77;66556.09;5134805;27;19924;-72
2021/07/20 03:30:33;;;;;;;;;;;;;;;11.47;75.93;66556.22;5134599;27;19924;-72
2021/07/20 03:33:01;;;;;;;;;;;;;;;11.48;75.39;66557.03;5134288;27;19924;-71
2021/07/20 03:35:28;;;;;;;;;;;;;;;11.51;73.06;66559.81;5134605;27;19929;-71
2021/07/20 03:37:55;;;;;;;;;;;;;;;11.53;71.45;66563.06;5134210;27;19923;-71
2021/07/20 03:40:25;;;;;;;;;;;;;;;11.56;73.61;66565.84;5134692;27;19931;-71
2021/07/20 03:42:53;;;;;;;;;;;;;;;11.58;70.91;66568.63;5134107;27;19924;-71
2021/07/20 03:45:20;;;;;;;;;;;;;;;11.60;71.90;66571.19;5134480;27;19931;-71
2021/07/20 03:47:46;;;;;;;;;;;;;;;11.63;71.33;66574.13;5133994;27;20377;-72
2021/07/20 03:50:16;;;;;;;;;;;;;;;11.65;72.33;66577.03;5134110;27;19924;-71
2021/07/20 03:52:43;;;;;;;;;;;;;;;11.68;71.35;66579.81;5133847;27;19928;-71
2021/07/20 03:55:10;;;;;;;;;;;;;;;11.71;71.44;66583.09;5134347;27;19923;-71
2021/07/20 03:57:39;;;;;;;;;;;;;;;11.73;72.06;66585.41;5134089;27;19927;-71
2021/07/20 04:00:07;;;;;;;;;;;;;;;11.75;71.46;66588.09;5133898;27;19923;-72
2021/07/20 04:02:44;;;;;;;;;;;;;;;11.78;72.07;66591.41;5133707;27;20510;-72
2021/07/20 04:05:12;;;;;;;;;;;;;;;11.81;71.58;66594.91;5134314;27;19923;-71
2021/07/20 04:07:40;;;;;;;;;;;;;;;11.85;67.40;66599.66;5133718;27;19931;-71
2021/07/20 04:10:07;;;;;;;;;;;;;;;11.88;69.54;66602.84;5133959;27;20089;-71
2021/07/20 04:12:35;;;;;;;;;;;;;;;11.92;64.27;66606.19;5134052;27;19923;-71
2021/07/20 04:15:03;;;;;;;;;;;;;;;11.94;67.25;66608.56;5133474;27;19927;-73
2021/07/20 04:17:29;;;;;;;;;;;;;;;11.96;66.53;66611.94;5134082;27;19923;-71
2021/07/20 04:19:56;;;;;;;;;;;;;;;12.00;66.58;66616.31;5133731;27;19930;-72
2021/07/20 04:22:23;;;;;;;;;;;;;;;12.04;65.27;66620.91;5134018;27;19923;-72
2021/07/20 04:24:50;;;;;;;;;;;;;;;12.08;68.17;66625.56;5133259;27;19923;-71
2021/07/20 04:27:17;;;;;;;;;;;;;;;12.12;66.63;66630.03;5134225;27;19931;-71
2021/07/20 04:29:43;;;;;;;;;;;;;;;12.14;67.32;66632.59;5133654;27;19931;-72
2021/07/20 04:32:12;;;;;;;;;;;;;;;12.16;68.62;66634.38;5133582;27;20014;-71
2021/07/20 04:34:39;;;;;;;;;;;;;;;12.16;66.79;66634.34;5133460;27;20266;-71
2021/07/20 04:37:06;;;;;;;;;;;;;;;12.15;69.18;66632.78;5133765;27;19923;-71
2021/07/20 04:39:33;;;;;;;;;;;;;;;12.13;70.92;66630.84;5133371;28;20388;-71
2021/07/20 04:42:00;;;;;;;;;;;;;;;12.11;67.65;66628.91;5133231;28;19924;-71
2021/07/20 04:44:27;;;;;;;;;;;;;;;12.12;64.39;66629.56;5133392;28;19924;-71
2021/07/20 04:46:54;;;;;;;;;;;;;;;12.14;63.32;66631.50;5133461;28;19946;-71
2021/07/20 04:49:22;;;;;;;;;;;;;;;12.16;63.18;66634.28;5133372;28;19931;-72
2021/07/20 04:51:49;;;;;;;;;;;;;;;12.19;62.34;66637.00;5132992;28;19931;-71
2021/07/20 04:54:17;;;;;;;;;;;;;;;12.21;62.94;66639.25;5133202;28;20289;-72
2021/07/20 04:56:44;;;;;;;;;;;;;;;12.24;60.04;66642.91;5133358;28;19923;-72
2021/07/20 04:59:11;;;;;;;;;;;;;;;12.28;60.19;66647.78;5133549;28;19923;-72
2021/07/20 05:01:40;;;;;;;;;;;;;;;12.33;58.92;66652.81;5133595;28;19927;-72
2021/07/20 05:04:07;;;;;;;;;;;;;;;12.37;57.31;66658.03;5133232;28;19923;-72
2021/07/20 05:06:36;;;;;;;;;;;;;;;12.42;57.41;66663.03;5133092;28;19923;-72
2021/07/20 05:09:03;;;;;;;;;;;;;;;12.47;54.88;66669.28;5132979;28;20370;-72
2021/07/20 05:11:30;;;;;;;;;;;;;;;12.54;55.50;66676.84;5133158;28;19924;-72
2021/07/20 05:13:56;;;;;;;;;;;;;;;12.61;54.88;66684.69;5135060;27;19930;-73
2021/07/20 05:16:23;;;;;;;;;;;;;;;12.67;54.80;66691.09;5137214;27;19930;-72
2021/07/20 05:18:50;;;;;;;;;;;;;;;12.72;54.00;66697.63;5136901;27;19930;-71
2021/07/20 05:21:17;;;;;;;;;;;;;;;12.78;54.24;66703.63;5136944;27;19923;-71
2021/07/20 05:23:45;;;;;;;;;;;;;;;12.83;55.09;66709.50;5137150;27;19931;-71
2021/07/20 05:26:12;;;;;;;;;;;;;;;12.90;54.63;66717.78;5137018;27;19931;-71
2021/07/20 05:28:39;;;;;;;;;;;;;;;12.96;54.33;66724.59;5137123;27;19928;-71
2021/07/20 05:31:06;;;;;;;;;;;;;;;13.02;55.49;66730.59;5136906;27;19930;-71
2021/07/20 05:33:33;;;;;;;;;;;;;;;13.07;54.52;66736.75;5136701;27;19923;-72
2021/07/20 05:36:00;;;;;;;;;;;;;;;13.13;52.31;66743.59;5136533;27;20317;-71
2021/07/20 05:38:28;;;;;;;;;;;;;;;13.20;52.54;66751.66;5136696;27;20285;-71
2021/07/20 05:40:57;;;;;;;;;;;;;;;13.28;54.03;66760.19;5136433;27;19924;-72
2021/07/20 05:43:25;;;;;;;;;;;;;;;13.37;51.59;66770.13;5136687;27;19930;-72
2021/07/20 05:45:53;;;;;;;;;;;;;;;13.44;52.61;66778.63;5136633;27;19923;-72
2021/07/20 05:48:21;;;;;;;;;;;;;;;13.49;52.71;66784.41;5136530;27;19943;-71
2021/07/20 05:50:51;;;;;;;;;;;;;;;13.55;54.48;66791.38;5136296;27;19924;-72
2021/07/20 05:53:18;;;;;;;;;;;;;;;13.62;50.87;66799.06;5136257;27;20381;-71
2021/07/20 05:55:46;;;;;;;;;;;;;;;13.69;51.39;66806.44;5136067;27;19924;-73
2021/07/20 05:58:14;;;;;;;;;;;;;;;13.73;53.35;66811.06;5136383;27;20284;-71
2021/07/20 06:00:42;;;;;;;;;;;;;;;13.79;53.54;66817.50;5136222;27;19924;-71
2021/07/20 06:03:12;;;;;;;;;;;;;;;13.82;51.70;66821.06;5136336;27;19930;-71
2021/07/20 06:05:40;;;;;;;;;;;;;;;13.86;50.96;66825.34;5136218;27;20405;-71
2021/07/20 06:08:06;;;;;;;;;;;;;;;13.92;51.66;66831.78;5136198;27;20373;-71
2021/07/20 06:10:33;;;;;;;;;;;;;;;14.00;50.84;66840.72;5136379;27;19923;-71
2021/07/20 06:13:00;;;;;;;;;;;;;;;14.08;51.77;66849.63;5135770;27;19927;-71
2021/07/20 06:15:28;;;;;;;;;;;;;;;14.15;50.13;66857.50;5136402;27;19923;-71
2021/07/20 06:17:58;;;;;;;;;;;;;;;14.19;52.24;66862.25;5136141;27;19930;-72
2021/07/20 06:20:25;;;;;;;;;;;;;;;14.22;53.17;66865.47;5135845;27;20396;-72
2021/07/20 06:22:53;;;;;;;;;;;;;;;14.22;53.06;66866.00;5136039;27;19923;-72
2021/07/20 06:25:22;;;;;;;;;;;;;;;14.22;53.46;66866.06;5136044;27;20177;-72
2021/07/20 06:27:49;;;;;;;;;;;;;;;14.24;52.77;66868.44;5135907;27;19985;-72
2021/07/20 06:30:16;;;;;;;;;;;;;;;14.28;51.99;66873.22;5136005;27;19923;-72
2021/07/20 06:32:45;;;;;;;;;;;;;;;14.32;49.52;66877.38;5135794;27;19924;-72
2021/07/20 06:35:13;;;;;;;;;;;;;;;14.34;51.50;66879.78;5135735;27;19924;-72
2021/07/20 06:37:41;;;;;;;;;;;;;;;14.34;52.80;66879.94;5135674;27;19931;-72
2021/07/20 06:40:09;;;;;;;;;;;;;;;14.35;51.08;66880.78;5135337;27;19927;-72
2021/07/20 06:42:36;;;;;;;;;;;;;;;14.36;51.99;66882.06;5141464;27;19931;-72
2021/07/20 06:45:03;;;;;;;;;;;;;;;14.37;52.93;66883.44;5142858;27;19930;-72
2021/07/20 06:47:32;;;;;;;;;;;;;;;14.38;52.68;66884.75;5144719;27;19954;-72
2021/07/20 06:50:04;;;;;;;;;;;;;;;14.38;51.57;66885.16;5144059;27;19927;-72
2021/07/20 06:52:31;;;;;;;;;;;;;;;14.38;52.64;66884.44;5135465;27;20014;-71
2021/07/20 06:55:00;;;;;;;;;;;;;;;14.36;52.35;66881.94;5135435;27;19947;-72
2021/07/20 06:57:27;;;;;;;;;;;;;;;14.34;53.11;66879.72;5135552;27;19924;-72
2021/07/20 06:59:54;;;;;;;;;;;;;;;14.33;52.32;66879.16;5135105;27;19924;-72
2021/07/20 07:02:22;;;;;;;;;;;;;;;14.32;52.79;66878.16;5135384;27;19964;-72
2021/07/20 07:04:53;;;;;;;;;;;;;;;14.34;53.09;66880.06;5135075;27;19931;-72
2021/07/20 07:07:22;;;;;;;;;;;;;;;14.37;51.85;66883.88;5135258;27;19928;-72
2021/07/20 07:09:50;;;;;;;;;;;;;;;14.40;50.59;66886.66;5134691;27;19923;-72
2021/07/20 07:12:17;;;;;;;;;;;;;;;14.42;51.47;66889.06;5134915;27;19923;-72
2021/07/20 07:14:44;;;;;;;;;;;;;;;14.45;52.54;66892.16;5134571;27;20403;-72
2021/07/20 07:17:12;;;;;;;;;;;;;;;14.47;51.02;66895.38;5135180;27;19930;-72
2021/07/20 07:19:39;;;;;;;;;;;;;;;14.54;49.03;66902.50;5134683;27;19924;-72
2021/07/20 07:22:07;;;;;;;;;;;;;;;14.64;46.32;66913.94;5134944;27;19924;-72
2021/07/20 07:24:35;;;;;;;;;;;;;;;14.70;47.83;66921.28;5134611;27;19924;-73
2021/07/20 07:27:02;;;;;;;;;;;;;;;14.72;50.97;66922.50;5134427;27;20386;-72
2021/07/20 07:29:29;;;;;;;;;;;;;;;14.72;50.19;66922.78;5135195;27;19927;-72
2021/07/20 07:31:56;;;;;;;;;;;;;;;14.71;51.13;66921.78;5134242;27;19923;-72
2021/07/20 07:34:23;;;;;;;;;;;;;;;14.70;51.62;66920.69;5134444;27;20331;-72
2021/07/20 07:36:51;;;;;;;;;;;;;;;14.77;49.14;66927.91;5134025;27;19980;-72
2021/07/20 07:39:20;;;;;;;;;;;;;;;14.88;47.03;66940.94;5134378;27;19927;-72
2021/07/20 07:41:48;;;;;;;;;;;;;;;14.97;46.99;66950.28;5134111;27;20391;-72
2021/07/20 07:44:16;;;;;;;;;;;;;;;15.11;43.79;66967.06;5134506;27;19931;-72
2021/07/20 07:46:44;;;;;;;;;;;;;;;15.18;46.26;66973.91;5134400;27;19923;-72
2021/07/20 07:49:11;;;;;;;;;;;;;;;15.25;47.21;66982.25;5134575;27;20293;-72
2021/07/20 07:51:39;;;;;;;;;;;;;;;15.34;44.05;66992.59;5134439;27;19923;-72
2021/07/20 07:54:06;;;;;;;;;;;;;;;15.39;45.36;66997.19;5133952;27;19924;-72
2021/07/20 07:56:33;;;;;;;;;;;;;;;15.50;45.10;67010.06;5134331;27;19931;-72
2021/07/20 07:59:01;;;;;;;;;;;;;;;15.73;41.61;67035.84;5133885;27;19934;-72
2021/07/20 08:01:29;;;;;;;;;;;;;;;15.94;41.76;67059.88;5133918;27;20381;-72
2021/07/20 08:03:57;;;;;;;;;;;;;;;16.06;43.32;67072.91;5133650;27;19938;-72
2021/07/20 08:06:25;;;;;;;;;;;;;;;16.08;47.04;67075.28;5134173;27;19931;-72
2021/07/20 08:08:54;;;;;;;;;;;;;;;16.17;45.44;67085.53;5133988;27;19923;-72
2021/07/20 08:11:23;;;;;;;;;;;;;;;16.39;40.65;67110.41;5133836;27;20393;-72
2021/07/20 08:13:50;;;;;;;;;;;;;;;16.57;41.38;67130.41;5133556;27;19924;-72
2021/07/20 08:16:19;;;;;;;;;;;;;;;16.63;42.80;67137.69;5133697;27;19923;-71
2021/07/20 08:18:46;;;;;;;;;;;;;;;16.66;45.26;67140.75;5133410;27;19927;-72
2021/07/20 08:21:14;;;;;;;;;;;;;;;16.63;46.82;67137.03;5133653;27;20277;-72
2021/07/20 08:23:40;;;;;;;;;;;;;;;16.58;47.91;67131.88;5133754;27;19927;-72
2021/07/20 08:26:09;;;;;;;;;;;;;;;16.51;48.33;67123.91;5133990;27;19924;-72
2021/07/20 08:28:40;;;;;;;;;;;;;;;16.43;49.45;67114.97;5133762;27;19924;-72
2021/07/20 08:31:09;;;;;;;;;;;;;;;16.35;48.88;67105.88;5133643;27;19976;-72
2021/07/20 08:33:37;;;;;;;;;;;;;;;16.26;49.14;67096.66;5133591;27;19970;-73
2021/07/20 08:36:05;;;;;;;;;;;;;;;16.24;47.95;67094.25;5133585;27;19924;-72
2021/07/20 08:38:34;;;;;;;;;;;;;;;16.32;43.72;67103.22;5133503;27;19934;-72
2021/07/20 08:41:09;;;;;;;;;;;;;;;16.49;40.95;67121.69;5133149;27;20374;-72
2021/07/20 08:43:44;;;;;;;;;;;;;;;16.70;38.18;67145.19;5133525;28;19924;-72
2021/07/20 08:46:19;;;;;;;;;;;;;;;16.84;40.15;67161.41;5133317;28;19927;-72
2021/07/20 08:48:53;;;;;;;;;;;;;;;16.98;38.00;67176.69;5135449;27;19943;-72
2021/07/20 08:51:25;;;;;;;;;;;;;;;17.12;39.56;67192.50;5137680;27;19923;-72
2021/07/20 08:53:54;;;;;;;;;;;;;;;17.33;35.58;67216.72;5137154;27;20380;-72
2021/07/20 08:56:23;;;;;;;;;;;;;;;17.42;38.12;67226.28;5137900;27;19927;-73
2021/07/20 08:58:51;;;;;;;;;;;;;;;17.38;42.61;67222.47;5137493;27;19924;-72
2021/07/20 09:01:23;;;;;;;;;;;;;;;17.32;45.75;67214.84;5137639;27;19923;-72
2021/07/20 09:03:55;;;;;;;;;;;;;;;17.27;46.33;67210.00;5137552;27;19924;-72
2021/07/20 09:06:26;;;;;;;;;;;;;;;17.44;36.96;67228.38;5137505;27;19935;-72
2021/07/20 09:08:54;;;;;;;;;;;;;;;17.69;37.28;67256.97;5137328;27;19923;-72
2021/07/20 09:11:23;;;;;;;;;;;;;;;17.80;36.98;67269.13;5137356;27;19923;-72
2021/07/20 09:13:52;;;;;;;;;;;;;;;17.80;41.37;67269.47;5137233;27;19924;-71
2021/07/20 09:16:25;;;;;;;;;;;;;;;17.74;42.84;67263.13;5137427;27;19923;-71
2021/07/20 09:18:56;;;;;;;;;;;;;;;17.69;42.56;67257.69;5137294;27;20298;-71
2021/07/20 09:21:24;;;;;;;;;;;;;;;17.71;41.90;67259.34;5137389;27;19924;-71
2021/07/20 09:23:55;;;;;;;;;;;;;;;17.73;41.93;67261.91;5137135;27;19923;-71
2021/07/20 09:26:23;;;;;;;;;;;;;;;17.73;43.53;67262.47;5136970;27;19934;-71
2021/07/20 09:28:53;;;;;;;;;;;;;;;17.90;38.00;67280.38;5137069;27;19923;-71
2021/07/20 09:31:24;;;;;;;;;;;;;;;18.11;35.64;67304.41;5137231;27;19923;-72
2021/07/20 09:33:56;;;;;;;;;;;;;;;18.25;36.67;67320.78;5136722;27;20296;-71
2021/07/20 09:36:25;;;;;;;;;;;;;;;18.21;39.23;67315.38;5137220;27;19947;-71
2021/07/20 09:39:04;;;;;;;;;;;;;;;18.10;42.35;67303.25;5136750;27;19931;-71
2021/07/20 09:41:36;;;;;;;;;;;;;;;18.05;41.76;67297.66;5136723;27;19924;-71
2021/07/20 09:44:09;;;;;;;;;;;;;;;18.09;39.37;67302.84;5136552;27;19927;-71
2021/07/20 09:46:39;;;;;;;;;;;;;;;18.18;37.20;67312.66;5136955;27;19985;-72
2021/07/20 09:49:08;;;;;;;;;;;;;;;18.30;36.68;67326.69;5136620;27;19927;-71
2021/07/20 09:51:56;;;;;;;;;;;;;;;18.32;40.17;67329.00;5136762;27;19930;-71
2021/07/20 09:54:37;;;;;;;;;;;;;;;18.43;37.65;67340.91;5136416;27;19924;-71
2021/07/20 09:57:19;;;;;;;;;;;;;;;18.66;35.08;67367.84;5132437;27;19923;-71
2021/07/20 09:59:51;;;;;;;;;;;;;;;18.92;31.90;67397.19;5132230;27;20274;-72
2021/07/20 10:02:21;;;;;;;;;;;;;;;19.06;34.88;67412.66;5136320;27;19923;-72
2021/07/20 10:04:51;;;;;;;;;;;;;;;19.17;37.06;67425.72;5136360;27;19963;-72
2021/07/20 10:07:26;;;;;;;;;;;;;;;19.30;34.72;67439.56;5136344;27;19924;-71
2021/07/20 10:09:54;;;;;;;;;;;;;;;19.47;34.04;67459.22;5136272;27;19924;-71
2021/07/20 10:12:24;;;;;;;;;;;;;;;19.66;30.35;67480.63;5136802;27;20028;-71
2021/07/20 10:14:55;;;;;;;;;;;;;;;19.83;32.67;67499.91;5136058;27;19931;-72
2021/07/20 10:17:26;;;;;;;;;;;;;;;19.93;34.18;67510.25;5136062;27;19939;-71
2021/07/20 10:19:54;;;;;;;;;;;;;;;20.07;32.60;67526.09;5136147;27;19923;-72
2021/07/20 10:22:25;;;;;;;;;;;;;;;20.18;33.69;67538.34;5135935;27;20405;-72
2021/07/20 10:24:55;;;;;;;;;;;;;;;20.20;34.57;67540.84;5135715;27;20389;-72
2021/07/20 10:27:25;;;;;;;;;;;;;;;20.27;32.16;67549.34;5136199;27;19924;-72
2021/07/20 10:29:59;;;;;;;;;;;;;;;20.40;30.83;67563.00;5135572;27;19935;-72
2021/07/20 10:32:29;;;;;;;;;;;;;;;20.62;31.06;67588.28;5136025;27;20317;-71
2021/07/20 10:34:58;;;;;;;;;;;;;;;20.65;34.13;67591.81;5135506;27;19923;-72
2021/07/20 10:37:28;;;;;;;;;;;;;;;20.75;32.24;67602.53;5135681;27;19924;-72
2021/07/20 10:39:59;;;;;;;;;;;;;;;20.85;32.18;67613.78;5135686;27;20285;-72
2021/07/20 10:42:28;;;;;;;;;;;;;;;20.85;34.56;67612.88;5135340;27;20059;-72
2021/07/20 10:44:58;;;;;;;;;;;;;;;20.78;35.28;67605.59;5135331;27;19996;-72
2021/07/20 10:47:27;;;;;;;;;;;;;;;20.89;31.86;67617.03;5135785;27;19924;-71
2021/07/20 10:49:55;;;;;;;;;;;;;;;20.98;32.91;67627.44;5135341;27;19924;-72
2021/07/20 10:52:26;;;;;;;;;;;;;;;20.99;34.40;67628.25;5135140;27;19924;-71
2021/07/20 10:54:57;;;;;;;;;;;;;;;21.01;33.83;67630.53;5135363;27;19923;-71
2021/07/20 10:57:26;;;;;;;;;;;;;;;20.94;36.00;67623.13;5135298;27;19923;-72
2021/07/20 11:00:02;;;;;;;;;;;;;;;20.87;37.26;67615.81;5134931;27;19927;-71
2021/07/20 11:02:33;;;;;;;;;;;;;;;20.72;38.74;67597.97;5135463;27;19923;-71
2021/07/20 11:05:01;;;;;;;;;;;;;;;20.59;38.88;67584.06;5135268;27;19928;-72
2021/07/20 11:07:29;;;;;;;;;;;;;;;20.48;38.76;67571.88;5135116;27;19924;-72
2021/07/20 11:09:59;;;;;;;;;;;;;;;20.36;38.92;67557.78;5135012;27;19924;-71
2021/07/20 11:12:28;;;;;;;;;;;;;;;20.21;39.70;67541.25;5134119;27;20381;-71
2021/07/20 11:14:57;;;;;;;;;;;;;;;20.10;39.36;67528.63;5134972;27;19923;-71
2021/07/20 11:17:24;;;;;;;;;;;;;;;20.15;35.95;67533.66;5135247;27;20018;-72
2021/07/20 11:19:52;;;;;;;;;;;;;;;20.30;32.95;67551.25;5134556;27;20282;-71
2021/07/20 11:22:19;;;;;;;;;;;;;;;20.57;29.92;67581.00;5134618;27;20365;-72
2021/07/20 11:24:46;;;;;;;;;;;;;;;20.85;28.24;67612.88;5134518;27;19935;-72
2021/07/20 11:27:17;;;;;;;;;;;;;;;20.88;33.05;67616.69;5134915;27;19927;-71
2021/07/20 11:29:43;;;;;;;;;;;;;;;20.77;36.76;67604.19;5134844;27;19976;-72
2021/07/20 11:32:14;;;;;;;;;;;;;;;20.68;37.10;67594.03;5134254;27;20377;-71
2021/07/20 11:34:43;;;;;;;;;;;;;;;20.54;39.49;67578.00;5134231;27;19931;-71
2021/07/20 11:37:12;;;;;;;;;;;;;;;20.36;40.20;67557.34;5134796;27;19939;-72
2021/07/20 11:39:44;;;;;;;;;;;;;;;20.15;42.72;67533.66;5134571;27;19931;-72
2021/07/20 11:42:14;;;;;;;;;;;;;;;19.93;44.60;67508.81;5134436;27;20378;-72
2021/07/20 11:44:48;;;;;;;;;;;;;;;19.70;44.12;67483.41;5134438;27;19924;-72
2021/07/20 11:47:18;;;;;;;;;;;;;;;19.46;45.73;67456.56;5134319;27;19937;-72
2021/07/20 11:49:50;;;;;;;;;;;;;;;19.23;48.13;67430.75;5134313;27;19923;-71
2021/07/20 11:52:19;;;;;;;;;;;;;;;19.03;47.58;67407.78;5133801;27;20381;-71
2021/07/20 11:54:53;;;;;;;;;;;;;;;18.82;47.53;67384.63;5134272;27;20304;-72
2021/07/20 11:57:34;;;;;;;;;;;;;;;18.64;47.44;67363.31;5134164;27;19924;-72
2021/07/20 12:00:16;;;;;;;;;;;;;;;18.47;47.15;67344.06;5133495;27;20209;-72
2021/07/20 12:03:13;;;;;;;;;;;;;;;18.31;45.56;67326.34;5133728;27;20384;-71
2021/07/20 12:06:02;;;;;;;;;;;;;;;18.23;43.53;67317.03;5030555;28;19968;-71
2021/07/20 12:08:33;;;;;;;;;;;;;;;18.20;41.51;67313.84;5125606;27;20335;-72
2021/07/20 12:11:04;;;;;;;;;;;;;;;18.20;39.89;67313.25;5133959;27;19935;-72
2021/07/20 12:13:34;;;;;;;;;;;;;;;18.26;38.22;67319.72;5133789;27;20339;-72
2021/07/20 12:16:07;;;;;;;;;;;;;;;18.27;40.25;67321.69;5133601;27;19923;-72
2021/07/20 12:18:37;;;;;;;;;;;;;;;18.33;38.36;67327.69;5133868;27;19923;-71
2021/07/20 12:21:04;;;;;;;;;;;;;;;18.35;40.09;67329.94;5133567;27;19924;-72
2021/07/20 12:23:31;;;;;;;;;;;;;;;18.32;42.73;67325.97;5133823;27;19923;-71
2021/07/20 12:25:57;;;;;;;;;;;;;;;18.24;43.71;67318.00;5133754;27;19930;-72
2021/07/20 12:28:24;;;;;;;;;;;;;;;18.15;43.88;67307.34;5133682;27;19931;-71
2021/07/20 12:30:58;;;;;;;;;;;;;;;18.03;45.56;67294.66;5133353;27;20293;-71
2021/07/20 12:33:26;;;;;;;;;;;;;;;17.90;46.56;67279.19;5133504;27;19948;-71
2021/07/20 12:35:52;;;;;;;;;;;;;;;17.71;50.36;67257.34;5133301;27;19924;-71
2021/07/20 12:38:22;;;;;;;;;;;;;;;17.52;52.64;67235.34;5133687;27;19977;-72
2021/07/20 12:40:48;;;;;;;;;;;;;;;17.32;54.21;67212.69;5133226;27;19931;-71
2021/07/20 12:43:16;;;;;;;;;;;;;;;17.12;55.04;67190.28;5133764;27;19931;-72
2021/07/20 12:45:44;;;;;;;;;;;;;;;16.93;56.97;67169.28;5133322;27;20067;-72
2021/07/20 12:48:24;;;;;;;;;;;;;;;16.74;57.80;67147.97;5133685;28;19923;-72
2021/07/20 12:50:53;;;;;;;;;;;;;;;16.57;58.73;67128.53;5133162;28;19924;-72
2021/07/20 12:53:20;;;;;;;;;;;;;;;16.40;56.54;67109.50;5133201;28;19923;-71
2021/07/20 12:55:47;;;;;;;;;;;;;;;16.28;57.53;67095.75;5133131;28;20377;-72
2021/07/20 12:58:17;;;;;;;;;;;;;;;16.30;49.90;67098.66;5133539;28;19928;-72
2021/07/20 13:00:44;;;;;;;;;;;;;;;16.30;49.03;67098.38;5133511;28;19980;-72